^^
Garrymore Weather Station Historical Data
Daily Summary for October 27, 2020 Units:  Both    English   Metric
Daily Weekly Monthly Yearly Custom
  High: Low: Average:
Temperature: 51.8 °F /  11 °C 42.8 °F /  6 °C 46.8 °F /  8.2 °C
Dew Point: 48.2 °F /  9 °C -5.8 °F /  -21 °C 39.4 °F /  4.1 °C
Humidity: 93% 10% 82%
Wind Speed: 57.8mph /  93km/h - 7.2mph /  11.6km/h
Wind Gust: 57.8mph /  93km/h - -
Wind- - South
Pressure: 29.6 in /  1000.61 hPa 29.3 in /  990.42 hPa -
Precipitation: 0.09 in /  2.39 mm    
Historical Graphs
 
 
Tabular Data for October 27, 2020
Time Temperature Dew Point Pressure Wind Wind Speed Wind Gust Humidity Rainfall Rate (Hourly) solar
00:00 42.8 °F /  6 °C 37.4 °F /  3 °C 29.6in /  1000.61hPa SSE 5mph /  8km/h 8.1mph /  13km/h 82% 0in /  0mm 0 W/m2
00:05 42.8 °F /  6 °C 37.4 °F /  3 °C 29.5in /  1000.41hPa SSE 3.1mph /  5km/h 8.1mph /  13km/h 82% 0in /  0mm 0 W/m2
00:10 42.8 °F /  6 °C 37.4 °F /  3 °C 29.5in /  1000.41hPa S 6.2mph /  10km/h 8.7mph /  14km/h 82% 0in /  0mm 0 W/m2
00:15 42.8 °F /  6 °C 37.4 °F /  3 °C 29.5in /  1000.51hPa S 3.1mph /  5km/h 6.8mph /  11km/h 82% 0in /  0mm 0 W/m2
00:20 42.8 °F /  6 °C 37.4 °F /  3 °C 29.5in /  1000.31hPa SSE 3.1mph /  5km/h 6.8mph /  11km/h 82% 0in /  0mm 0 W/m2
00:25 42.8 °F /  6 °C 37.4 °F /  3 °C 29.5in /  1000.2hPa SSE 5mph /  8km/h 8.1mph /  13km/h 82% 0in /  0mm 0 W/m2
00:30 42.8 °F /  6 °C 37.4 °F /  3 °C 29.5in /  1000.1hPa SSE 6.2mph /  10km/h 8.7mph /  14km/h 82% 0in /  0mm 0 W/m2
00:35 42.8 °F /  6 °C 37.4 °F /  3 °C 29.5in /  1000.1hPa SSE 5mph /  8km/h 8.7mph /  14km/h 83% 0in /  0mm 0 W/m2
00:40 42.8 °F /  6 °C 37.4 °F /  3 °C 29.5in /  999.9hPa SSE 3.1mph /  5km/h 6.8mph /  11km/h 83% 0in /  0mm 0 W/m2
00:45 42.8 °F /  6 °C 37.4 °F /  3 °C 29.5in /  999.7hPa SSE 3.1mph /  5km/h 6.2mph /  10km/h 83% 0in /  0mm 0 W/m2
00:50 42.8 °F /  6 °C 37.4 °F /  3 °C 29.5in /  999.8hPa SSE 3.1mph /  5km/h 6.2mph /  10km/h 83% 0in /  0mm 0 W/m2
00:55 42.8 °F /  6 °C 37.4 °F /  3 °C 29.5in /  999.63hPa SSE 3.1mph /  5km/h 5mph /  8km/h 83% 0in /  0mm 0 W/m2
01:00 42.8 °F /  6 °C 37.4 °F /  3 °C 29.5in /  999.59hPa SSE 1.2mph /  2km/h 5mph /  8km/h 83% 0in /  0mm 0 W/m2
01:05 42.8 °F /  6 °C 37.4 °F /  3 °C 29.5in /  999.22hPa SSE 1.2mph /  2km/h 1.9mph /  3km/h 83% 0in /  0mm 0 W/m2
01:10 42.8 °F /  6 °C 37.4 °F /  3 °C 29.5in /  999.39hPa SSE 1.2mph /  2km/h 3.1mph /  5km/h 83% 0in /  0mm 0 W/m2
01:15 42.8 °F /  6 °C 37.4 °F /  3 °C 29.5in /  999.19hPa SE 5mph /  8km/h 6.8mph /  11km/h 83% 0in /  0mm 0 W/m2
01:20 42.8 °F /  6 °C 37.4 °F /  3 °C 29.5in /  999.02hPa SSE 6.2mph /  10km/h 8.1mph /  13km/h 83% 0in /  0mm 0 W/m2
01:25 42.8 °F /  6 °C 37.4 °F /  3 °C 29.5in /  998.78hPa SSE 6.2mph /  10km/h 8.7mph /  14km/h 83% 0in /  0mm 0 W/m2
01:30 42.8 °F /  6 °C 39.2 °F /  4 °C 29.5in /  998.78hPa SSE 5mph /  8km/h 8.7mph /  14km/h 84% 0in /  0mm 0 W/m2
01:35 42.8 °F /  6 °C 39.2 °F /  4 °C 29.5in /  998.61hPa SSE 3.1mph /  5km/h 6.8mph /  11km/h 84% 0in /  0mm 0 W/m2
01:40 42.8 °F /  6 °C 39.2 °F /  4 °C 29.5in /  998.61hPa SSE 3.1mph /  5km/h 8.1mph /  13km/h 85% 0in /  0mm 0 W/m2
01:45 42.8 °F /  6 °C 39.2 °F /  4 °C 29.5in /  998.41hPa SSE 1.2mph /  2km/h 5mph /  8km/h 85% 0in /  0mm 0 W/m2
01:50 42.8 °F /  6 °C 39.2 °F /  4 °C 29.5in /  998.1hPa SSE 1.9mph /  3km/h 3.7mph /  6km/h 85% 0in /  0mm 0 W/m2
01:55 42.8 °F /  6 °C 39.2 °F /  4 °C 29.5in /  998.21hPa SSE 1.2mph /  2km/h 3.7mph /  6km/h 85% 0.01in /  0.3mm 0 W/m2
02:00 42.8 °F /  6 °C 39.2 °F /  4 °C 29.5in /  997.9hPa E 1.2mph /  2km/h 3.1mph /  5km/h 86% 0in /  0mm 0 W/m2
02:05 42.8 °F /  6 °C 39.2 °F /  4 °C 29.5in /  997.53hPa Calm   3.1mph /  5km/h 86% 0in /  0mm 0 W/m2
02:10 42.8 °F /  6 °C 39.2 °F /  4 °C 29.5in /  997.7hPa Calm   3.1mph /  5km/h 86% 0in /  0mm 0 W/m2
02:15 42.8 °F /  6 °C 39.2 °F /  4 °C 29.5in /  997.49hPa Calm   3.7mph /  6km/h 86% 0in /  0mm 0 W/m2
02:20 42.8 °F /  6 °C 39.2 °F /  4 °C 29.5in /  997.29hPa ENE 3.1mph /  5km/h 5mph /  8km/h 86% 0in /  0mm 0 W/m2
02:25 42.8 °F /  6 °C 39.2 °F /  4 °C 29.4in /  997.09hPa ENE 1.2mph /  2km/h 5mph /  8km/h 86% 0in /  0mm 0 W/m2
02:30 42.8 °F /  6 °C 39.2 °F /  4 °C 29.4in /  996.92hPa ENE 1.2mph /  2km/h 3.7mph /  6km/h 86% 0in /  0mm 0 W/m2
02:35 42.8 °F /  6 °C 39.2 °F /  4 °C 29.4in /  996.89hPa ENE 1.2mph /  2km/h 3.7mph /  6km/h 86% 0in /  0mm 0 W/m2
02:40 42.8 °F /  6 °C 39.2 °F /  4 °C 29.4in /  996.51hPa ESE 3.1mph /  5km/h 6.2mph /  10km/h 86% 0in /  0mm 0 W/m2
02:45 42.8 °F /  6 °C 39.2 °F /  4 °C 29.4in /  996.51hPa SE 1.2mph /  2km/h 6.2mph /  10km/h 86% 0in /  0mm 0 W/m2
02:50 44.6 °F /  7 °C 39.2 °F /  4 °C 29.4in /  996.41hPa E 3.1mph /  5km/h 6.2mph /  10km/h 87% 0in /  0mm 0 W/m2
02:55 42.8 °F /  6 °C 39.2 °F /  4 °C 29.4in /  996.21hPa ESE 3.1mph /  5km/h 8.1mph /  13km/h 87% 0in /  0mm 0 W/m2
03:00 44.6 °F /  7 °C 39.2 °F /  4 °C 29.4in /  996.11hPa ESE 6.2mph /  10km/h 8.1mph /  13km/h 87% 0in /  0mm 0 W/m2
03:05 44.6 °F /  7 °C 39.2 °F /  4 °C 29.4in /  995.7hPa SE 1.2mph /  2km/h 8.1mph /  13km/h 87% 0in /  0mm 0 W/m2
03:10 44.6 °F /  7 °C 41 °F /  5 °C 29.4in /  995.6hPa S 5mph /  8km/h 6.2mph /  10km/h 87% 0in /  0mm 0 W/m2
03:15 44.6 °F /  7 °C 41 °F /  5 °C 29.4in /  995.5hPa E 5mph /  8km/h 8.1mph /  13km/h 88% 0in /  0mm 0 W/m2
03:20 44.6 °F /  7 °C 41 °F /  5 °C 29.4in /  995.4hPa ESE 1.9mph /  3km/h 8.1mph /  13km/h 88% 0in /  0mm 0 W/m2
03:25 44.6 °F /  7 °C 41 °F /  5 °C 29.4in /  995.29hPa SSE 3.1mph /  5km/h 6.2mph /  10km/h 88% 0in /  0mm 0 W/m2
03:30 44.6 °F /  7 °C 41 °F /  5 °C 29.4in /  995.02hPa SE 6.8mph /  11km/h 11.2mph /  18km/h 88% 0in /  0mm 0 W/m2
03:35 44.6 °F /  7 °C 41 °F /  5 °C 29.4in /  994.99hPa SE 3.1mph /  5km/h 9.9mph /  16km/h 88% 0in /  0mm 0 W/m2
03:40 44.6 °F /  7 °C 41 °F /  5 °C 29.4in /  994.72hPa SE 6.2mph /  10km/h 8.1mph /  13km/h 87% 0in /  0mm 0 W/m2
03:45 44.6 °F /  7 °C 41 °F /  5 °C 29.4in /  994.31hPa ESE 6.2mph /  10km/h 9.9mph /  16km/h 87% 0in /  0mm 0 W/m2
03:50 44.6 °F /  7 °C 41 °F /  5 °C 29.4in /  994.38hPa SE 6.2mph /  10km/h 8.7mph /  14km/h 88% 0in /  0mm 0 W/m2
03:55 44.6 °F /  7 °C 41 °F /  5 °C 29.4in /  994.14hPa SSE 3.1mph /  5km/h 8.1mph /  13km/h 88% 0in /  0mm 0 W/m2
04:00 44.6 °F /  7 °C 42.8 °F /  6 °C 29.4in /  994.01hPa SE 3.1mph /  5km/h 11.2mph /  18km/h 89% 0in /  0mm 0 W/m2
04:05 44.6 °F /  7 °C 42.8 °F /  6 °C 29.4in /  994.01hPa SE 6.2mph /  10km/h 13mph /  21km/h 89% 0in /  0mm 0 W/m2
04:10 46.4 °F /  8 °C 42.8 °F /  6 °C 29.3in /  993.6hPa SSE 5mph /  8km/h 13mph /  21km/h 90% 0in /  0mm 0 W/m2
04:15 46.4 °F /  8 °C 42.8 °F /  6 °C 29.3in /  993.6hPa SSE 5mph /  8km/h 11.2mph /  18km/h 90% 0in /  0mm 0 W/m2
04:20 46.4 °F /  8 °C 42.8 °F /  6 °C 29.3in /  993.6hPa SSE 3.1mph /  5km/h 9.9mph /  16km/h 90% 0in /  0mm 0 W/m2
04:25 46.4 °F /  8 °C 42.8 °F /  6 °C 29.3in /  993.5hPa SE 6.2mph /  10km/h 11.2mph /  18km/h 91% 0in /  0mm 0 W/m2
04:30 46.4 °F /  8 °C 42.8 °F /  6 °C 29.3in /  993.3hPa SSE 6.2mph /  10km/h 14.3mph /  23km/h 91% 0in /  0mm 0 W/m2
04:35 46.4 °F /  8 °C 44.6 °F /  7 °C 29.3in /  993.09hPa S 8.1mph /  13km/h 13mph /  21km/h 91% 0in /  0mm 0 W/m2
04:40 46.4 °F /  8 °C 44.6 °F /  7 °C 29.3in /  993.09hPa SSE 6.8mph /  11km/h 14.3mph /  23km/h 92% 0in /  0mm 0 W/m2
04:45 46.4 °F /  8 °C 44.6 °F /  7 °C 29.3in /  992.89hPa SSE 6.2mph /  10km/h 14.3mph /  23km/h 91% 0in /  0mm 0 W/m2
04:50 46.4 °F /  8 °C 44.6 °F /  7 °C 29.3in /  992.82hPa SSE 5mph /  8km/h 8.7mph /  14km/h 91% 0in /  0mm 0 W/m2
04:55 46.4 °F /  8 °C 44.6 °F /  7 °C 29.3in /  992.52hPa SE 3.1mph /  5km/h 8.1mph /  13km/h 91% 0in /  0mm 0 W/m2
05:00 46.4 °F /  8 °C 44.6 °F /  7 °C 29.3in /  992.42hPa SE 3.1mph /  5km/h 8.1mph /  13km/h 91% 0in /  0mm 0 W/m2
05:05 46.4 °F /  8 °C 44.6 °F /  7 °C 29.3in /  992.52hPa SSE 5mph /  8km/h 8.1mph /  13km/h 91% 0in /  0mm 0 W/m2
05:10 46.4 °F /  8 °C 44.6 °F /  7 °C 29.3in /  992.38hPa S 3.1mph /  5km/h 6.8mph /  11km/h 92% 0in /  0mm 0 W/m2
05:15 48.2 °F /  9 °C 44.6 °F /  7 °C 29.3in /  992.21hPa SSE 1.2mph /  2km/h 6.2mph /  10km/h 92% 0in /  0mm 0 W/m2
05:20 48.2 °F /  9 °C 44.6 °F /  7 °C 29.3in /  992.28hPa SE 3.1mph /  5km/h 6.2mph /  10km/h 92% 0in /  0mm 0 W/m2
05:25 48.2 °F /  9 °C 44.6 °F /  7 °C 29.3in /  991.81hPa SSE 1.2mph /  2km/h 6.2mph /  10km/h 92% 0in /  0mm 0 W/m2
05:30 48.2 °F /  9 °C 46.4 °F /  8 °C 29.3in /  991.81hPa Calm   6.2mph /  10km/h 92% 0in /  0mm 0 W/m2
05:35 48.2 °F /  9 °C 46.4 °F /  8 °C 29.3in /  991.81hPa SSE 1.2mph /  2km/h 6.2mph /  10km/h 92% 0in /  0mm 0 W/m2
05:40 48.2 °F /  9 °C 46.4 °F /  8 °C 29.3in /  991.81hPa Calm   5mph /  8km/h 92% 0in /  0mm 0 W/m2
05:45 48.2 °F /  9 °C 46.4 °F /  8 °C 29.3in /  991.67hPa Calm   5mph /  8km/h 91% 0in /  0mm 0 W/m2
05:50 48.2 °F /  9 °C 46.4 °F /  8 °C 29.3in /  991.6hPa Calm   3.1mph /  5km/h 92% 0in /  0mm 0 W/m2
05:55 48.2 °F /  9 °C 46.4 °F /  8 °C 29.3in /  991.6hPa Calm   3.7mph /  6km/h 92% 0in /  0mm 0 W/m2
06:00 48.2 °F /  9 °C 46.4 °F /  8 °C 29.3in /  991.5hPa Calm   3.1mph /  5km/h 92% 0in /  0mm 0 W/m2
06:05 48.2 °F /  9 °C 46.4 °F /  8 °C 29.3in /  991.3hPa Calm   3.1mph /  5km/h 92% 0in /  0mm 0 W/m2
06:10 48.2 °F /  9 °C 46.4 °F /  8 °C 29.3in /  991.3hPa Calm   3.1mph /  5km/h 92% 0in /  0mm 0 W/m2
06:15 48.2 °F /  9 °C 46.4 °F /  8 °C 29.3in /  990.89hPa Calm   3.1mph /  5km/h 92% 0in /  0mm 0 W/m2
06:20 48.2 °F /  9 °C 46.4 °F /  8 °C 29.3in /  990.93hPa Calm   3.7mph /  6km/h 92% 0in /  0mm 0 W/m2
06:25 48.2 °F /  9 °C 46.4 °F /  8 °C 29.3in /  990.89hPa Calm   3.7mph /  6km/h 92% 0in /  0mm 0 W/m2
06:30 48.2 °F /  9 °C 46.4 °F /  8 °C 29.3in /  990.69hPa Calm   3.7mph /  6km/h 92% 0in /  0mm 0 W/m2
06:35 48.2 °F /  9 °C 46.4 °F /  8 °C 29.3in /  990.89hPa Calm   3.1mph /  5km/h 92% 0in /  0mm 0 W/m2
06:40 48.2 °F /  9 °C 46.4 °F /  8 °C 29.3in /  990.48hPa Calm   3.1mph /  5km/h 92% 0in /  0mm 0 W/m2
06:45 48.2 °F /  9 °C 46.4 °F /  8 °C 29.3in /  990.48hPa Calm   3.1mph /  5km/h 92% 0in /  0mm 0 W/m2
06:50 50 °F /  10 °C 46.4 °F /  8 °C 29.3in /  990.89hPa Calm   3.1mph /  5km/h 92% 0in /  0mm 0 W/m2
06:55 50 °F /  10 °C 46.4 °F /  8 °C 29.3in /  990.42hPa Calm   1.9mph /  3km/h 92% 0in /  0mm 0 W/m2
07:00 50 °F /  10 °C 48.2 °F /  9 °C 29.3in /  990.59hPa Calm   1.9mph /  3km/h 93% 0in /  0mm 0 W/m2
07:05 50 °F /  10 °C 48.2 °F /  9 °C 29.3in /  990.69hPa Calm   1.2mph /  2km/h 93% 0in /  0mm 0 W/m2
07:10 50 °F /  10 °C 48.2 °F /  9 °C 29.3in /  990.52hPa Calm     93% 0in /  0mm 0 W/m2
07:15 50 °F /  10 °C 48.2 °F /  9 °C 29.3in /  990.59hPa Calm     93% 0in /  0mm 0 W/m2
07:20 50 °F /  10 °C 48.2 °F /  9 °C 29.3in /  990.42hPa S 1.2mph /  2km/h 3.1mph /  5km/h 93% 0in /  0mm 0 W/m2
07:25 50 °F /  10 °C 48.2 °F /  9 °C 29.3in /  990.42hPa Calm   3.1mph /  5km/h 93% 0in /  0mm 0 W/m2
07:30 50 °F /  10 °C 48.2 °F /  9 °C 29.3in /  990.79hPa Calm   1.9mph /  3km/h 93% 0in /  0mm 0 W/m2
07:35 50 °F /  10 °C 48.2 °F /  9 °C 29.3in /  990.62hPa Calm   1.9mph /  3km/h 93% 0in /  0mm 0 W/m2
07:40 50 °F /  10 °C 48.2 °F /  9 °C 29.3in /  990.62hPa SSW 1.2mph /  2km/h 3.1mph /  5km/h 93% 0in /  0mm 0 W/m2
07:45 50 °F /  10 °C 48.2 °F /  9 °C 29.3in /  990.79hPa Calm   3.1mph /  5km/h 93% 0in /  0mm 0 W/m2
07:50 50 °F /  10 °C 48.2 °F /  9 °C 29.3in /  990.69hPa Calm   3.1mph /  5km/h 93% 0in /  0mm 0 W/m2
07:55 50 °F /  10 °C 48.2 °F /  9 °C 29.3in /  990.79hPa Calm   3.1mph /  5km/h 93% 0in /  0mm 0 W/m2
08:00 50 °F /  10 °C 48.2 °F /  9 °C 29.3in /  990.79hPa Calm     93% 0in /  0mm 0 W/m2
08:05 50 °F /  10 °C 21.2 °F /  -6 °C 29.3in /  990.59hPa S 42.9mph /  69km/h 57.8mph /  93km/h 32% 0in /  0mm 0 W/m2
08:10 50 °F /  10 °C -5.8 °F /  -21 °C 29.3in /  990.82hPa S 57.8mph /  93km/h 57.8mph /  93km/h 10% 0in /  0mm 0 W/m2
08:15 50 °F /  10 °C -5.8 °F /  -21 °C 29.3in /  990.72hPa S 57.8mph /  93km/h 57.8mph /  93km/h 10% 0in /  0mm 0 W/m2
08:20 50 °F /  10 °C -5.8 °F /  -21 °C 29.3in /  990.82hPa S 57.8mph /  93km/h 57.8mph /  93km/h 10% 0in /  0mm 0 W/m2
08:25 50 °F /  10 °C 39.2 °F /  4 °C 29.3in /  991.2hPa S 14.9mph /  24km/h 57.8mph /  93km/h 69% 0.02in /  0.61mm 0 W/m2
08:30 48.2 °F /  9 °C 46.4 °F /  8 °C 29.3in /  990.99hPa Calm   3.1mph /  5km/h 93% 0.06in /  1.5mm 0 W/m2
08:35 48.2 °F /  9 °C 46.4 °F /  8 °C 29.3in /  991.2hPa NW 1.2mph /  2km/h 3.1mph /  5km/h 92% 0in /  0mm 0 W/m2
08:40 48.2 °F /  9 °C 46.4 °F /  8 °C 29.3in /  991.09hPa NW 1.2mph /  2km/h 3.1mph /  5km/h 92% 0in /  0mm 0 W/m2
08:45 48.2 °F /  9 °C 46.4 °F /  8 °C 29.3in /  991.3hPa Calm   1.9mph /  3km/h 92% 0in /  0mm 0 W/m2
08:50 48.2 °F /  9 °C 46.4 °F /  8 °C 29.3in /  991.4hPa Calm   1.9mph /  3km/h 93% 0in /  0mm 0 W/m2
08:55 48.2 °F /  9 °C 46.4 °F /  8 °C 29.3in /  991.5hPa Calm   1.9mph /  3km/h 93% 0in /  0mm 0 W/m2
09:00 48.2 °F /  9 °C 46.4 °F /  8 °C 29.3in /  991.4hPa Calm   1.9mph /  3km/h 93% 0in /  0mm 0 W/m2
09:05 48.2 °F /  9 °C 46.4 °F /  8 °C 29.3in /  991.3hPa Calm   1.9mph /  3km/h 93% 0in /  0mm 0 W/m2
09:10 48.2 °F /  9 °C 46.4 °F /  8 °C 29.3in /  991.4hPa SSW 1.2mph /  2km/h 1.9mph /  3km/h 93% 0in /  0mm 0 W/m2
09:15 48.2 °F /  9 °C 46.4 °F /  8 °C 29.3in /  991.4hPa WNW 1.2mph /  2km/h 1.9mph /  3km/h 93% 0in /  0mm 0 W/m2
09:20 48.2 °F /  9 °C 46.4 °F /  8 °C 29.3in /  991.5hPa NW 1.2mph /  2km/h 57.2mph /  92km/h 93% 0in /  0mm 0 W/m2
09:25 48.2 °F /  9 °C -5.8 °F /  -21 °C 29.3in /  991.33hPa NW 57.8mph /  93km/h 57.8mph /  93km/h 10% 0in /  0mm 0 W/m2
09:30 48.2 °F /  9 °C -5.8 °F /  -21 °C 29.3in /  991.5hPa NW 57.8mph /  93km/h 57.8mph /  93km/h 10% 0in /  0mm 0 W/m2
09:35 48.2 °F /  9 °C -5.8 °F /  -21 °C 29.3in /  991.6hPa NW 57.8mph /  93km/h 57.8mph /  93km/h 10% 0in /  0mm 0 W/m2
09:40 48.2 °F /  9 °C -5.8 °F /  -21 °C 29.3in /  991.4hPa NW 57.8mph /  93km/h 57.8mph /  93km/h 10% 0in /  0mm 0 W/m2
09:45 48.2 °F /  9 °C -5.8 °F /  -21 °C 29.3in /  991.4hPa NW 57.8mph /  93km/h 57.8mph /  93km/h 10% 0in /  0mm 0 W/m2
09:50 48.2 °F /  9 °C -5.8 °F /  -21 °C 29.3in /  991.6hPa NW 57.8mph /  93km/h 57.8mph /  93km/h 10% 0in /  0mm 0 W/m2
09:55 48.2 °F /  9 °C 46.4 °F /  8 °C 29.3in /  991.7hPa NW 1.2mph /  2km/h 57.8mph /  93km/h 93% 0in /  0mm 0 W/m2
10:00 48.2 °F /  9 °C 46.4 °F /  8 °C 29.3in /  991.7hPa W 3.1mph /  5km/h 6.2mph /  10km/h 91% 0in /  0mm 0 W/m2
10:05 48.2 °F /  9 °C 46.4 °F /  8 °C 29.3in /  991.81hPa WNW 8.1mph /  13km/h 11.2mph /  18km/h 91% 0in /  0mm 0 W/m2
10:10 48.2 °F /  9 °C 46.4 °F /  8 °C 29.3in /  991.81hPa W 8.7mph /  14km/h 14.9mph /  24km/h 91% 0in /  0mm 0 W/m2
10:15 48.2 °F /  9 °C 46.4 °F /  8 °C 29.3in /  991.91hPa SW 8.7mph /  14km/h 14.9mph /  24km/h 91% 0in /  0mm 0 W/m2
10:20 48.2 °F /  9 °C -5.8 °F /  -21 °C 29.3in /  991.81hPa SW 57.8mph /  93km/h 57.8mph /  93km/h 10% 0in /  0mm 0 W/m2
10:25 50 °F /  10 °C 46.4 °F /  8 °C 29.3in /  991.97hPa WSW 8.1mph /  13km/h 57.8mph /  93km/h 89% 0in /  0mm 0 W/m2
10:30 50 °F /  10 °C 46.4 °F /  8 °C 29.3in /  992.01hPa W 6.2mph /  10km/h 11.8mph /  19km/h 87% 0in /  0mm 0 W/m2
10:35 50 °F /  10 °C 44.6 °F /  7 °C 29.3in /  992.18hPa NW 5mph /  8km/h 9.9mph /  16km/h 84% 0in /  0mm 0 W/m2
10:40 50 °F /  10 °C 44.6 °F /  7 °C 29.3in /  992.01hPa NE 5mph /  8km/h 8.1mph /  13km/h 84% 0in /  0mm 0 W/m2
10:45 50 °F /  10 °C 44.6 °F /  7 °C 29.3in /  992.01hPa E 6.2mph /  10km/h 13mph /  21km/h 81% 0in /  0mm 0 W/m2
10:50 50 °F /  10 °C 44.6 °F /  7 °C 29.3in /  992.01hPa SSW 6.2mph /  10km/h 14.3mph /  23km/h 81% 0in /  0mm 0 W/m2
10:55 50 °F /  10 °C 44.6 °F /  7 °C 29.3in /  992.28hPa SSW 6.8mph /  11km/h 14.9mph /  24km/h 81% 0in /  0mm 0 W/m2
11:00 50 °F /  10 °C 44.6 °F /  7 °C 29.3in /  992.48hPa NNW 6.2mph /  10km/h 14.9mph /  24km/h 81% 0in /  0mm 0 W/m2
11:05 50 °F /  10 °C 44.6 °F /  7 °C 29.3in /  992.31hPa W 6.8mph /  11km/h 9.9mph /  16km/h 80% 0in /  0mm 0 W/m2
11:10 50 °F /  10 °C 44.6 °F /  7 °C 29.3in /  992.31hPa SW 6.8mph /  11km/h 13mph /  21km/h 80% 0in /  0mm 0 W/m2
11:15 51.8 °F /  11 °C 44.6 °F /  7 °C 29.3in /  992.42hPa S 5mph /  8km/h 13mph /  21km/h 76% 0in /  0mm 0 W/m2
11:20 51.8 °F /  11 °C 44.6 °F /  7 °C 29.3in /  992.52hPa SE 8.1mph /  13km/h 14.3mph /  23km/h 73% 0in /  0mm 0 W/m2
Garrymore Weather Station, Geashill, Tullamore, Offaly, Ireland
Compliments of Weather Underground - 2 mb